Time;durP1;ratioP1;P1;durP2;ratioP2;P2;SDS_P1;SDS_P2;PMS_P1;PMS_P2;Temp;Humidity;BMP_temperature;BMP_pressure;BME280_temperature;BME280_humidity;BME280_pressure;Samples;Min_cycle;Max_cycle;Signal;HPM_P1;HPM_P2
2021/05/11 00:01:11;;;;;;;19.90;11.68;;;;;;;15.76;43.14;98168.75;5070425;28;20055;-73
2021/05/11 00:03:37;;;;;;;18.65;10.75;;;;;;;15.80;43.12;98168.06;5070719;28;20032;-73
2021/05/11 00:06:02;;;;;;;17.33;9.43;;;;;;;15.77;43.06;98167.59;5070609;28;20024;-73
2021/05/11 00:08:28;;;;;;;17.75;9.68;;;;;;;15.77;43.48;98173.13;5070559;28;20060;-73
2021/05/11 00:10:53;;;;;;;14.45;7.97;;;;;;;15.77;43.09;98161.28;5070491;28;20066;-73
2021/05/11 00:13:19;;;;;;;14.10;8.18;;;;;;;15.74;43.00;98157.22;5070563;28;20028;-73
2021/05/11 00:15:44;;;;;;;12.88;8.13;;;;;;;15.71;43.35;98152.38;5070381;28;20382;-73
2021/05/11 00:18:10;;;;;;;13.63;7.90;;;;;;;15.67;43.49;98142.34;5070300;28;20069;-72
2021/05/11 00:20:36;;;;;;;12.93;7.47;;;;;;;15.66;43.29;98155.34;5070495;28;20063;-73
2021/05/11 00:23:02;;;;;;;11.65;7.47;;;;;;;15.66;43.69;98155.34;5070368;28;20029;-73
2021/05/11 00:25:28;;;;;;;13.10;7.13;;;;;;;15.64;43.76;98146.59;5070313;28;20028;-73
2021/05/11 00:27:53;;;;;;;18.55;9.32;;;;;;;15.64;43.49;98149.34;5071302;28;20024;-73
2021/05/11 00:30:19;;;;;;;18.02;8.88;;;;;;;15.61;43.25;98145.28;5071844;28;20035;-73
2021/05/11 00:32:44;;;;;;;15.23;7.63;;;;;;;15.59;43.51;98147.59;5072115;28;20485;-73
2021/05/11 00:35:11;;;;;;;14.13;7.47;;;;;;;15.58;43.67;98139.66;5075530;28;20162;-73
2021/05/11 00:37:37;;;;;;;12.38;6.18;;;;;;;15.55;43.60;98141.13;5075597;28;20160;-73
2021/05/11 00:40:05;;;;;;;10.95;6.03;;;;;;;15.57;43.80;98140.78;5075674;28;20083;-73
2021/05/11 00:42:30;;;;;;;11.70;6.25;;;;;;;15.56;44.17;98133.66;5079199;28;20048;-73
2021/05/11 00:44:56;;;;;;;11.52;6.35;;;;;;;15.58;43.80;98134.91;5074156;28;20456;-73
2021/05/11 00:47:21;;;;;;;11.05;6.20;;;;;;;15.59;43.94;98130.22;5075258;28;20025;-73
2021/05/11 00:49:48;;;;;;;13.50;6.65;;;;;;;15.57;43.99;98121.44;5075301;28;20028;-73
2021/05/11 00:52:14;;;;;;;15.05;6.65;;;;;;;15.53;43.86;98123.25;5075474;28;20028;-73
2021/05/11 00:54:40;;;;;;;14.57;5.97;;;;;;;15.51;44.28;98120.81;5085289;28;20042;-74
2021/05/11 00:57:05;;;;;;;9.40;5.68;;;;;;;15.51;44.06;98115.28;5074894;28;20025;-74
2021/05/11 00:59:32;;;;;;;9.32;5.53;;;;;;;15.51;44.24;98120.03;5074929;28;20048;-73
2021/05/11 01:02:00;;;;;;;11.93;5.53;;;;;;;15.51;44.44;98117.25;5075191;28;20103;-74
2021/05/11 01:04:26;;;;;;;9.88;5.10;;;;;;;15.50;44.37;98121.16;5075153;28;20048;-74
2021/05/11 01:06:54;;;;;;;9.65;4.85;;;;;;;15.48;44.21;98119.56;5075284;28;20021;-74
2021/05/11 01:09:20;;;;;;;9.98;5.55;;;;;;;15.47;44.46;98119.91;5084824;28;20552;-74
2021/05/11 01:11:46;;;;;;;10.10;5.53;;;;;;;15.49;44.43;98112.06;5094023;28;20024;-73
2021/05/11 01:14:12;;;;;;;11.98;5.90;;;;;;;15.49;44.63;98106.53;5093919;28;20027;-73
2021/05/11 01:16:38;;;;;;;12.32;6.30;;;;;;;15.48;44.58;98107.69;5073641;28;20075;-73
2021/05/11 01:19:20;;;;;;;12.35;6.35;;;;;;;15.47;44.22;98101.34;5074638;28;20037;-74
2021/05/11 01:24:21;;;;;;;9.48;5.45;;;;;;;15.42;44.50;98098.78;5076303;28;20106;-74
2021/05/11 01:26:58;;;;;;;9.73;5.28;;;;;;;15.41;44.62;98101.91;5094827;28;20037;-73
2021/05/11 02:25:00;;;;;;;8.07;4.55;;;;;;;15.30;44.95;98060.03;5072467;28;20162;-73
2021/05/11 02:27:26;;;;;;;9.02;4.65;;;;;;;15.29;45.04;98063.94;5072429;28;20047;-72
2021/05/11 02:29:51;;;;;;;8.52;4.80;;;;;;;15.26;45.16;98059.91;5072351;28;20020;-72
2021/05/11 02:32:17;;;;;;;8.77;4.60;;;;;;;15.26;45.26;98059.13;5072261;28;20435;-72
2021/05/11 02:34:43;;;;;;;6.90;4.70;;;;;;;15.24;45.24;98062.19;5068115;28;20024;-72
2021/05/11 02:37:09;;;;;;;7.15;4.25;;;;;;;15.25;45.27;98052.78;5072110;28;20059;-72
2021/05/11 02:39:34;;;;;;;7.90;5.22;;;;;;;15.23;45.10;98057.81;5071916;28;20048;-72
2021/05/11 02:41:59;;;;;;;9.93;4.70;;;;;;;15.21;45.42;98051.81;5072253;28;20487;-72
2021/05/11 02:44:25;;;;;;;8.65;5.20;;;;;;;15.19;45.38;98045.81;5070720;28;20024;-72
2021/05/11 02:46:50;;;;;;;8.50;4.97;;;;;;;15.17;45.24;98046.19;5071886;28;20052;-72
2021/05/11 02:49:18;;;;;;;9.27;4.95;;;;;;;15.11;45.28;98044.75;5071396;28;20024;-72
2021/05/11 02:51:43;;;;;;;9.90;4.97;;;;;;;15.08;45.25;98048.19;5071706;28;20036;-72
2021/05/11 02:54:09;;;;;;;9.43;4.97;;;;;;;15.06;45.52;98049.69;5071566;28;20020;-72
2021/05/11 02:56:34;;;;;;;11.02;5.65;;;;;;;15.01;45.38;98039.63;5071385;28;20481;-72
2021/05/11 02:58:59;;;;;;;11.80;5.97;;;;;;;15.01;45.53;98042.38;5072023;28;20111;-72
2021/05/11 03:01:25;;;;;;;11.68;5.43;;;;;;;14.98;45.46;98034.78;5070208;28;20109;-72
2021/05/11 03:03:50;;;;;;;9.32;5.90;;;;;;;14.98;45.63;98043.06;5071778;28;20377;-72
2021/05/11 03:06:15;;;;;;;12.52;5.45;;;;;;;14.97;45.59;98041.44;5071704;28;20062;-71
2021/05/11 03:08:43;;;;;;;9.85;5.75;;;;;;;14.95;45.62;98035.44;5071599;28;20059;-71
2021/05/11 03:11:09;;;;;;;10.23;5.68;;;;;;;14.92;45.79;98038.88;5071874;28;20033;-72
2021/05/11 03:13:34;;;;;;;9.45;5.75;;;;;;;14.90;45.60;98041.97;5079620;28;20024;-72
2021/05/11 03:16:00;;;;;;;13.38;6.65;;;;;;;14.86;45.34;98036.34;5092563;28;20028;-72
2021/05/11 03:18:25;;;;;;;12.27;6.38;;;;;;;14.85;45.73;98040.25;5091050;28;20031;-72
2021/05/11 03:20:50;;;;;;;11.27;6.13;;;;;;;14.84;46.02;98035.03;5074345;28;20136;-72
2021/05/11 03:23:16;;;;;;;9.60;5.90;;;;;;;14.79;45.81;98038.00;5071736;28;20085;-72
2021/05/11 03:25:41;;;;;;;12.43;6.10;;;;;;;14.76;46.25;98036.72;5073104;28;20454;-73
2021/05/11 03:28:07;;;;;;;12.55;6.78;;;;;;;14.73;46.02;98031.88;5077063;28;20042;-73
2021/05/11 03:30:32;;;;;;;14.13;6.28;;;;;;;14.70;46.26;98038.06;5093082;28;20039;-72
2021/05/11 03:32:57;;;;;;;13.73;6.25;;;;;;;14.69;46.17;98030.91;5092887;28;20454;-72
2021/05/11 03:35:23;;;;;;;13.82;6.40;;;;;;;14.66;46.37;98032.38;5092307;28;20397;-72
2021/05/11 03:37:48;;;;;;;13.95;7.07;;;;;;;14.63;46.53;98033.03;5093255;28;20076;-71
2021/05/11 03:40:14;;;;;;;13.95;7.13;;;;;;;14.59;46.65;98032.88;5090952;28;20135;-72
2021/05/11 03:42:48;;;;;;;12.52;6.85;;;;;;;14.54;46.72;98030.31;5092436;28;20024;-72
2021/05/11 03:45:16;;;;;;;14.43;7.22;;;;;;;14.50;46.92;98021.06;5092797;28;20455;-71
2021/05/11 03:47:47;;;;;;;11.40;6.50;;;;;;;14.47;47.38;98023.69;5090440;28;20039;-72
2021/05/11 03:50:14;;;;;;;11.80;7.03;;;;;;;14.44;47.38;98025.19;5092706;28;20024;-72
2021/05/11 03:52:40;;;;;;;11.32;6.75;;;;;;;14.41;47.55;98015.63;5092898;28;20032;-72
2021/05/11 03:55:06;;;;;;;14.25;7.63;;;;;;;14.38;47.69;98012.72;5092335;28;20028;-72
2021/05/11 03:57:31;;;;;;;12.55;7.22;;;;;;;14.39;48.07;98022.63;5092771;28;20020;-72
2021/05/11 03:59:56;;;;;;;13.85;7.65;;;;;;;14.39;47.76;98014.34;5091611;28;20131;-72
2021/05/11 04:02:22;;;;;;;11.43;7.43;;;;;;;14.40;47.76;98013.19;5075049;28;20063;-71
2021/05/11 04:04:47;;;;;;;13.38;8.07;;;;;;;14.42;48.03;98008.16;5073384;28;20106;-72
2021/05/11 04:07:14;;;;;;;15.68;7.50;;;;;;;14.46;48.35;98019.31;5075245;28;20382;-72
2021/05/11 04:12:25;;;;;;;16.10;8.23;;;;;;;14.55;48.39;98007.09;5076786;28;20029;-72
2021/05/11 04:17:35;;;;;;;15.55;8.07;;;;;;;14.62;48.58;98001.06;5096017;28;20043;-71
2021/05/11 04:20:00;;;;;;;18.92;7.72;;;;;;;14.67;48.58;98005.56;5096697;28;20460;-71
2021/05/11 04:22:26;;;;;;;14.43;8.50;;;;;;;14.69;48.57;97993.06;5096501;28;20429;-72
2021/05/11 04:24:51;;;;;;;15.15;8.10;;;;;;;14.76;49.16;97998.06;5092751;28;20378;-71
2021/05/11 04:27:17;;;;;;;14.02;7.63;;;;;;;14.81;49.11;97995.13;5076271;28;20056;-72
2021/05/11 04:29:42;;;;;;;15.40;7.68;;;;;;;14.86;49.04;98003.22;5082884;28;20020;-71
2021/05/11 04:32:07;;;;;;;14.65;7.85;;;;;;;14.93;48.93;98002.66;5081277;28;20029;-71
2021/05/11 04:34:33;;;;;;;13.50;7.63;;;;;;;14.98;48.96;97998.88;5074855;28;20024;-71
2021/05/11 04:36:58;;;;;;;14.20;7.60;;;;;;;15.05;49.19;97998.34;5075960;28;20035;-71
2021/05/11 04:39:23;;;;;;;13.82;7.40;;;;;;;15.09;48.89;97997.34;5076823;28;20112;-71
2021/05/11 04:41:49;;;;;;;11.45;6.95;;;;;;;15.15;49.02;97998.75;5074542;28;20483;-72
2021/05/11 04:44:16;;;;;;;11.45;6.75;;;;;;;15.23;49.02;97997.03;5075026;28;20031;-72
2021/05/11 04:46:49;;;;;;;14.93;6.90;;;;;;;15.31;49.31;97996.16;5074222;28;20031;-73
2021/05/11 04:49:15;;;;;;;10.93;6.65;;;;;;;15.40;49.08;97992.53;5076591;28;20029;-72
2021/05/11 04:51:40;;;;;;;13.30;6.95;;;;;;;15.48;48.89;98000.72;5084940;28;20375;-72
2021/05/11 04:54:06;;;;;;;11.23;6.60;;;;;;;15.57;49.17;97989.56;5075438;28;20045;-72
2021/05/11 04:56:31;;;;;;;11.43;6.55;;;;;;;15.66;49.16;97991.44;5074662;28;20021;-72
2021/05/11 04:58:57;;;;;;;9.88;5.53;;;;;;;15.77;48.78;97995.38;5084101;28;20051;-71
2021/05/11 05:01:22;;;;;;;13.43;6.88;;;;;;;15.86;48.91;97992.53;5074340;28;20131;-72
2021/05/11 05:03:52;;;;;;;12.23;6.45;;;;;;;15.97;49.52;97992.91;5075482;28;20474;-72
2021/05/11 05:06:17;;;;;;;9.80;6.13;;;;;;;16.06;49.10;97983.38;5075461;28;20107;-72
2021/05/11 05:08:42;;;;;;;11.38;6.07;;;;;;;16.16;48.85;97995.13;5076555;28;20052;-72
2021/05/11 05:11:08;;;;;;;11.35;6.28;;;;;;;16.26;48.87;97994.66;5085455;28;20532;-72
2021/05/11 05:13:33;;;;;;;12.07;6.80;;;;;;;16.34;49.09;97990.97;5091073;28;20099;-72
2021/05/11 05:15:59;;;;;;;11.13;6.03;;;;;;;16.45;48.97;97985.00;5078716;28;20032;-72
2021/05/11 05:18:28;;;;;;;11.93;6.28;;;;;;;16.57;48.78;97989.69;5094449;28;20048;-72
2021/05/11 05:20:54;;;;;;;9.23;6.00;;;;;;;16.65;48.74;97986.78;5080578;28;20119;-71
2021/05/11 05:23:21;;;;;;;11.45;6.40;;;;;;;16.75;48.56;97977.19;5073674;28;20028;-72
2021/05/11 05:26:04;;;;;;;11.02;6.05;;;;;;;16.85;48.38;97984.22;5080794;28;20027;-71
2021/05/11 05:28:29;;;;;;;10.05;5.47;;;;;;;16.98;48.31;97984.22;5093478;28;20028;-73
2021/05/11 05:30:55;;;;;;;10.32;5.50;;;;;;;17.07;48.34;97977.41;5075325;28;20077;-72
2021/05/11 05:33:35;;;;;;;10.27;6.25;;;;;;;17.20;48.69;97971.78;5091527;28;20027;-72
2021/05/11 05:36:01;;;;;;;9.23;5.50;;;;;;;17.33;48.65;97969.75;5095302;28;20020;-72
2021/05/11 05:38:28;;;;;;;12.82;5.72;;;;;;;17.42;48.47;97962.09;5093039;28;20032;-72
2021/05/11 05:41:00;;;;;;;10.80;5.32;;;;;;;17.56;48.51;97967.22;5094492;28;20036;-73
2021/05/11 05:43:26;;;;;;;8.55;4.65;;;;;;;17.68;48.68;97958.84;5095012;28;20107;-72
2021/05/11 05:45:53;;;;;;;8.73;4.40;;;;;;;17.82;48.11;97958.41;5094785;28;20028;-72
2021/05/11 05:48:19;;;;;;;9.68;4.75;;;;;;;17.94;48.05;97957.50;5089661;28;20043;-72
2021/05/11 05:50:45;;;;;;;12.18;5.10;;;;;;;18.06;47.69;97958.63;5090200;28;20020;-72
2021/05/11 05:53:13;;;;;;;8.30;4.65;;;;;;;18.19;47.50;97957.38;5074867;28;20029;-72
2021/05/11 05:55:39;;;;;;;8.57;5.03;;;;;;;18.30;47.41;97964.00;5085819;28;20386;-72
2021/05/11 05:58:04;;;;;;;8.88;4.68;;;;;;;18.42;47.34;97965.03;5091853;28;20032;-72
2021/05/11 06:00:30;;;;;;;10.57;4.72;;;;;;;18.53;47.36;97965.31;5080480;28;20094;-71
2021/05/11 06:03:04;;;;;;;9.90;5.30;;;;;;;18.66;47.11;97957.66;5073896;28;20440;-72
2021/05/11 06:05:31;;;;;;;8.70;4.72;;;;;;;18.78;47.04;97963.06;5074916;28;20028;-72
2021/05/11 06:07:56;;;;;;;9.38;5.03;;;;;;;18.89;47.28;97958.53;5075917;28;20020;-72
2021/05/11 06:10:25;;;;;;;10.65;5.20;;;;;;;19.00;47.01;97950.47;5080691;28;20031;-71
2021/05/11 06:12:54;;;;;;;12.68;5.28;;;;;;;19.13;46.89;97958.66;5053811;28;20065;-72
2021/05/11 06:18:05;;;;;;;7.85;4.85;;;;;;;19.38;46.94;97953.59;5081269;28;20113;-73
2021/05/11 06:20:30;;;;;;;8.23;4.90;;;;;;;19.49;46.94;97957.41;5091080;28;20165;-72
2021/05/11 06:22:55;;;;;;;6.53;3.97;;;;;;;19.61;46.83;97950.84;5085282;28;20488;-71
2021/05/11 06:25:21;;;;;;;9.35;3.78;;;;;;;19.73;46.58;97946.31;5073428;28;20424;-72
2021/05/11 06:27:46;;;;;;;8.90;4.35;;;;;;;19.87;46.36;97943.75;5072322;28;20424;-71
2021/05/11 06:30:12;;;;;;;4.57;3.53;;;;;;;20.00;46.30;97947.16;5073276;28;20024;-71
2021/05/11 06:32:37;;;;;;;7.05;3.67;;;;;;;20.14;46.00;97943.03;5075331;28;20025;-72
2021/05/11 06:35:07;;;;;;;8.55;4.03;;;;;;;20.28;45.62;97940.47;5065734;28;20039;-71
2021/05/11 06:37:32;;;;;;;8.88;3.70;;;;;;;20.44;45.38;97942.28;5091753;28;20405;-71
2021/05/11 06:39:59;;;;;;;6.30;3.78;;;;;;;20.55;45.62;97945.25;5092468;28;20034;-71
2021/05/11 06:42:25;;;;;;;5.60;3.75;;;;;;;20.68;45.18;97941.84;5080542;28;20024;-71
2021/05/11 06:50:26;;;;;;;7.82;3.65;;;;;;;21.07;44.10;97935.19;5074765;28;20166;-71
2021/05/11 06:53:05;;;;;;;6.85;3.40;;;;;;;21.20;44.08;97938.53;5062008;28;20025;-72
2021/05/11 06:55:30;;;;;;;5.97;3.33;;;;;;;21.35;43.86;97947.06;5076484;28;20024;-70
2021/05/11 06:57:56;;;;;;;5.00;3.08;;;;;;;21.46;42.95;97941.63;5073310;28;20252;-69
2021/05/11 07:00:21;;;;;;;6.80;3.20;;;;;;;21.56;43.21;97940.94;5069131;28;20040;-68
2021/05/11 07:02:48;;;;;;;4.55;3.10;;;;;;;21.67;42.46;97929.91;5071865;28;20033;-67
2021/05/11 07:05:13;;;;;;;5.75;3.17;;;;;;;21.78;42.67;97930.03;5071761;28;20036;-70
2021/05/11 07:07:41;;;;;;;11.52;3.38;;;;;;;21.86;42.16;97932.50;5072392;28;20527;-69
2021/05/11 07:15:17;;;;;;;5.90;3.28;;;;;;;22.20;41.90;97928.78;5072339;28;20038;-68
2021/05/11 07:17:42;;;;;;;9.40;3.92;;;;;;;22.29;42.09;97925.66;5075222;28;20111;-69
2021/05/11 07:20:08;;;;;;;8.38;4.68;;;;;;;22.40;41.86;97932.13;5071559;28;20074;-69
2021/05/11 07:22:34;;;;;;;7.28;4.13;;;;;;;22.53;41.27;97931.81;5071721;28;20108;-69
2021/05/11 07:25:00;;;;;;;4.88;2.88;;;;;;;22.63;40.78;97931.06;5071357;28;20096;-69
2021/05/11 07:29:57;;;;;;;9.27;3.30;;;;;;;22.78;40.82;97928.38;5071589;28;20029;-70
2021/05/11 07:32:23;;;;;;;7.47;3.60;;;;;;;22.84;40.70;97930.41;5071617;28;20035;-70
2021/05/11 07:34:52;;;;;;;7.65;3.67;;;;;;;22.96;40.56;97928.47;5071941;28;20020;-69
2021/05/11 07:37:17;;;;;;;7.13;2.95;;;;;;;23.03;40.79;97932.06;5070378;28;20471;-70
2021/05/11 07:39:45;;;;;;;4.90;2.85;;;;;;;23.13;40.30;97924.13;5071776;28;20025;-71
2021/05/11 07:42:11;;;;;;;11.55;3.10;;;;;;;23.23;40.01;97922.59;5071508;28;20032;-71
2021/05/11 07:44:41;;;;;;;8.63;3.15;;;;;;;23.31;39.62;97913.81;5075092;28;20055;-71
2021/05/11 07:47:36;;;;;;;;;;;;;;;23.42;39.75;97919.47;5092733;28;20031;-71
2021/05/11 08:16:28;;;;;;;4.75;2.17;;;;;;;24.37;37.25;97917.53;5069672;28;20504;-69
2021/05/11 08:29:43;;;;;;;6.38;2.28;;;;;;;24.74;36.31;97919.06;5069119;28;20027;-70
2021/05/11 08:32:08;;;;;;;3.92;2.20;;;;;;;24.86;36.60;97903.03;5066306;28;20444;-70
2021/05/11 08:34:33;;;;;;;6.75;2.50;;;;;;;24.95;36.63;97911.78;5072241;28;20038;-71
2021/05/11 08:36:59;;;;;;;5.07;2.20;;;;;;;25.03;35.70;97923.78;5082544;28;20029;-70
2021/05/11 08:39:24;;;;;;;4.72;2.28;;;;;;;25.06;35.31;97926.56;5072634;28;20445;-72
2021/05/11 08:41:50;;;;;;;4.93;2.17;;;;;;;25.10;35.21;97918.13;5070490;28;20455;-72
2021/05/11 08:44:16;;;;;;;3.15;2.40;;;;;;;25.14;35.07;97921.72;5072149;28;20021;-73
2021/05/11 08:46:42;;;;;;;8.05;4.60;;;;;;;25.17;35.35;97923.72;5072007;28;20085;-71
2021/05/11 08:49:12;;;;;;;5.90;3.00;;;;;;;25.25;35.00;97916.06;5075866;28;20025;-70
2021/05/11 08:51:52;;;;;;;7.53;3.05;;;;;;;25.35;35.05;97925.63;5071300;28;20038;-70
2021/05/11 09:04:35;;;;;;;6.40;2.50;;;;;;;25.54;35.01;97925.13;5041079;28;20056;-68
2021/05/11 09:25:26;;;;;;;4.35;1.90;;;;;;;26.12;32.76;97935.97;5046235;28;20091;-69
2021/05/11 09:33:02;;;;;;;4.97;2.30;;;;;;;26.35;32.28;97914.13;5048811;28;20467;-71
2021/05/11 10:10:41;;;;;;;7.00;2.10;;;;;;;26.94;28.57;97904.66;5069581;28;20122;-70
2021/05/11 10:48:28;;;;;;;8.13;2.20;;;;;;;27.69;27.84;97887.19;5070281;28;20032;-73
2021/05/11 10:51:05;;;;;;;6.20;1.90;;;;;;;27.75;27.90;97886.25;5069037;28;20174;-73
2021/05/11 10:53:46;;;;;;;6.47;2.00;;;;;;;27.81;28.06;97889.41;5070232;28;20478;-72
2021/05/11 10:56:26;;;;;;;3.72;2.03;;;;;;;27.86;27.06;97886.13;5070599;28;20032;-73
2021/05/11 11:01:37;;;;;;;5.63;2.10;;;;;;;27.95;27.24;97882.75;5070234;28;20498;-72
2021/05/11 11:04:09;;;;;;;5.10;2.08;;;;;;;27.98;27.21;97886.72;5071079;28;20055;-73
2021/05/11 11:06:57;;;;;;;5.20;1.90;;;;;;;28.06;26.88;97879.72;5071180;28;20024;-72
2021/05/11 11:09:29;;;;;;;4.60;2.10;;;;;;;28.10;27.25;97874.06;5071160;28;20025;-72
2021/05/11 11:11:55;;;;;;;7.38;2.30;;;;;;;28.15;27.58;97873.56;5071442;28;20484;-73
2021/05/11 11:14:21;;;;;;;1.80;1.50;;;;;;;28.19;26.58;97866.66;5071167;28;20021;-73
2021/05/11 11:16:48;;;;;;;2.53;1.88;;;;;;;28.22;25.98;97859.34;5070605;28;20020;-73
2021/05/11 11:19:16;;;;;;;7.53;2.10;;;;;;;28.23;26.77;97866.56;5071261;28;20028;-73
2021/05/11 11:24:37;;;;;;;4.47;2.00;;;;;;;28.41;27.41;97863.44;5059542;28;20498;-73
2021/05/11 11:27:03;;;;;;;5.88;2.17;;;;;;;28.47;26.97;97858.88;5071343;28;20028;-73
2021/05/11 11:29:29;;;;;;;4.38;1.80;;;;;;;28.51;26.96;97856.00;5071184;28;20482;-73
2021/05/11 11:31:56;;;;;;;4.22;2.00;;;;;;;28.51;26.22;97847.53;5070970;28;20028;-73
2021/05/11 11:34:35;;;;;;;3.80;2.00;;;;;;;28.53;27.51;97842.25;5070777;28;20428;-73
2021/05/11 11:37:06;;;;;;;6.53;2.25;;;;;;;28.60;27.24;97850.56;5055936;28;20410;-72
2021/05/11 11:39:42;;;;;;;3.47;1.85;;;;;;;28.67;27.24;97836.31;5052330;28;20033;-72
2021/05/11 11:42:19;;;;;;;4.53;1.90;;;;;;;28.74;27.10;97846.66;5052311;28;20532;-72
2021/05/11 11:44:47;;;;;;;5.97;2.03;;;;;;;28.79;26.58;97851.81;5052350;28;20483;-71
2021/05/11 11:47:13;;;;;;;6.97;2.22;;;;;;;28.85;27.08;97852.13;5052406;28;20032;-72
2021/05/11 11:49:43;;;;;;;4.97;1.85;;;;;;;28.87;26.31;97843.22;5051203;28;20028;-71
2021/05/11 11:52:14;;;;;;;4.55;2.00;;;;;;;28.88;27.02;97842.78;5052268;28;20025;-71
2021/05/11 11:57:54;;;;;;;5.68;2.20;;;;;;;29.00;26.85;97832.06;5052131;28;20033;-71
2021/05/11 12:00:30;;;;;;;2.80;1.80;;;;;;;29.01;25.72;97825.97;5051901;28;20043;-71
2021/05/11 12:03:07;;;;;;;5.25;2.40;;;;;;;29.00;26.21;97829.22;5052339;28;20028;-70
2021/05/11 12:05:41;;;;;;;3.38;1.90;;;;;;;29.03;25.83;97814.25;5052667;28;20056;-72
2021/05/11 12:10:50;;;;;;;6.28;2.50;;;;;;;29.10;25.96;97814.91;5052186;28;20072;-72
2021/05/11 12:13:27;;;;;;;5.78;2.00;;;;;;;29.18;25.98;97814.72;5052138;28;20025;-71
2021/05/11 12:16:11;;;;;;;5.63;2.70;;;;;;;29.27;26.67;97817.72;5051986;28;20055;-72
2021/05/11 12:18:55;;;;;;;4.97;2.05;;;;;;;29.39;27.17;97802.97;5052146;28;20223;-72
2021/05/11 12:21:20;;;;;;;3.22;2.10;;;;;;;29.52;26.72;97803.03;5050789;28;20033;-72
2021/05/11 12:23:45;;;;;;;5.22;2.60;;;;;;;29.63;26.81;97794.28;5051820;28;20048;-72
2021/05/11 12:26:11;;;;;;;6.40;2.53;;;;;;;29.74;27.19;97796.06;5052029;28;20025;-72
2021/05/11 12:28:43;;;;;;;5.40;2.20;;;;;;;29.88;26.90;97798.53;5054989;28;20033;-72
2021/05/11 12:31:10;;;;;;;4.07;2.30;;;;;;;30.00;26.54;97795.00;5055797;28;20032;-72
2021/05/11 12:33:40;;;;;;;7.35;2.40;;;;;;;30.14;26.58;97788.19;5055749;28;20032;-72
2021/05/11 12:36:28;;;;;;;5.60;2.10;;;;;;;30.36;26.76;97781.91;5055868;28;20033;-72
2021/05/11 12:42:15;;;;;;;6.05;2.00;;;;;;;30.87;25.51;97789.75;5055609;28;20045;-72
2021/05/11 12:44:41;;;;;;;6.20;2.20;;;;;;;31.13;25.86;97783.31;5055626;28;20029;-71
2021/05/11 12:47:08;;;;;;;5.22;1.75;;;;;;;31.44;24.76;97777.91;5055527;28;20209;-72
2021/05/11 12:49:34;;;;;;;3.05;2.10;;;;;;;31.64;24.76;97782.50;5055430;28;20078;-72
2021/05/11 12:52:01;;;;;;;3.97;2.22;;;;;;;31.91;24.99;97773.50;5055591;28;20051;-71
2021/05/11 12:54:34;;;;;;;7.18;2.10;;;;;;;32.25;24.57;97768.28;5055357;28;20025;-71
2021/05/11 13:02:40;;;;;;;5.00;1.88;;;;;;;33.02;23.10;97769.91;5055460;28;20552;-71
2021/05/11 13:26:54;;;;;;;5.28;1.85;;;;;;;35.30;20.20;97739.28;5023634;28;20482;-72
2021/05/11 13:32:03;;;;;;;5.70;2.40;;;;;;;35.39;19.55;97739.22;5054710;28;20025;-72
2021/05/11 13:34:30;;;;;;;9.15;3.63;;;;;;;35.49;19.77;97734.28;5054656;28;20025;-72
2021/05/11 13:36:56;;;;;;;4.40;2.30;;;;;;;35.60;18.88;97736.59;5070041;28;20024;-72
2021/05/11 13:39:21;;;;;;;3.75;2.03;;;;;;;35.68;18.51;97731.28;5054094;28;20021;-72
2021/05/11 13:41:47;;;;;;;3.22;1.88;;;;;;;35.63;18.52;97721.34;5053332;28;20475;-71
2021/05/11 13:44:12;;;;;;;4.00;1.80;;;;;;;35.74;18.76;97724.44;5054494;28;20021;-72
2021/05/11 13:46:38;;;;;;;5.25;1.80;;;;;;;35.95;18.42;97729.53;5054397;28;20482;-72
2021/05/11 13:49:04;;;;;;;6.97;2.20;;;;;;;35.96;17.89;97719.69;5054499;28;20462;-72
2021/05/11 13:51:30;;;;;;;7.38;2.05;;;;;;;35.90;17.59;97713.84;5054391;28;20059;-71
2021/05/11 13:53:59;;;;;;;5.45;2.10;;;;;;;35.88;18.08;97705.78;5054469;28;20105;-72
2021/05/11 14:04:36;;;;;;;3.92;2.00;;;;;;;36.52;17.55;97708.56;5054104;28;20033;-71
2021/05/11 14:07:02;;;;;;;3.65;2.10;;;;;;;36.64;17.25;97709.56;5054111;28;20494;-72
2021/05/11 14:09:28;;;;;;;3.47;1.85;;;;;;;36.73;17.05;97698.03;5053962;28;20029;-72
2021/05/11 14:11:53;;;;;;;5.25;1.90;;;;;;;36.95;17.54;97702.50;5053906;28;20106;-71
2021/05/11 14:14:19;;;;;;;4.97;2.05;;;;;;;37.15;17.88;97698.16;5054071;28;20021;-71
2021/05/11 14:16:45;;;;;;;4.57;2.20;;;;;;;37.44;17.61;97705.06;5053824;28;20425;-71
2021/05/11 14:19:11;;;;;;;4.88;1.90;;;;;;;37.51;17.09;97694.00;5053933;28;20033;-71
2021/05/11 14:21:37;;;;;;;2.60;2.05;;;;;;;37.54;16.95;97692.22;5053695;28;20040;-71
2021/05/11 14:24:03;;;;;;;8.63;2.63;;;;;;;37.65;17.16;97689.50;5053717;28;20040;-71
2021/05/11 14:26:29;;;;;;;4.55;2.17;;;;;;;37.79;17.38;97699.31;5053547;28;20025;-71
2021/05/11 14:28:56;;;;;;;5.95;2.30;;;;;;;37.93;17.42;97691.94;5053931;28;20370;-72
2021/05/11 14:31:23;;;;;;;5.53;2.05;;;;;;;37.94;16.85;97696.38;5053741;28;20029;-72
2021/05/11 14:33:49;;;;;;;3.20;2.17;;;;;;;37.87;16.57;97693.16;5053656;28;20032;-72
2021/05/11 14:36:14;;;;;;;4.68;1.75;;;;;;;38.05;16.37;97692.06;5053780;28;20044;-71
2021/05/11 14:38:39;;;;;;;4.07;2.22;;;;;;;38.14;15.75;97683.28;5053578;28;20040;-71
2021/05/11 14:41:07;;;;;;;3.97;2.00;;;;;;;37.95;15.45;97695.09;5052101;28;20218;-72
2021/05/11 14:43:34;;;;;;;4.50;2.33;;;;;;;37.89;15.67;97685.63;5053384;28;20025;-72
2021/05/11 14:46:01;;;;;;;3.75;2.10;;;;;;;37.96;15.77;97684.41;5053288;28;20354;-72
2021/05/11 14:48:27;;;;;;;5.47;1.88;;;;;;;37.87;15.50;97688.19;5053107;28;20021;-72
2021/05/11 14:50:53;;;;;;;3.95;2.40;;;;;;;37.77;15.50;97686.78;5052224;28;20036;-71
2021/05/11 14:53:18;;;;;;;5.57;2.45;;;;;;;37.62;15.69;97673.34;5053129;28;20096;-71
2021/05/11 14:55:44;;;;;;;3.00;2.50;;;;;;;37.43;15.39;97678.53;5053103;28;20083;-72
2021/05/11 14:58:09;;;;;;;3.97;2.33;;;;;;;37.36;14.92;97670.38;5052885;28;20031;-71
2021/05/11 15:00:35;;;;;;;5.75;2.25;;;;;;;37.38;15.66;97674.31;5052694;28;20051;-72
2021/05/11 15:03:01;;;;;;;5.80;2.20;;;;;;;37.48;15.52;97669.28;5053351;28;20067;-71
2021/05/11 15:05:26;;;;;;;6.32;2.03;;;;;;;37.42;15.06;97664.72;5053170;28;20045;-72
2021/05/11 15:07:53;;;;;;;3.55;2.17;;;;;;;37.19;15.57;97661.59;5053037;28;20437;-71
2021/05/11 15:10:19;;;;;;;4.60;2.13;;;;;;;36.80;15.47;97662.53;5053411;28;20025;-71
2021/05/11 15:12:45;;;;;;;4.28;2.55;;;;;;;36.46;15.56;97657.06;5052723;28;20075;-71
2021/05/11 15:15:14;;;;;;;4.53;2.40;;;;;;;36.10;16.43;97653.31;5052800;28;20034;-71
2021/05/11 15:20:11;;;;;;;4.25;2.42;;;;;;;35.22;16.64;97656.19;5053008;28;20033;-71
2021/05/11 15:22:37;;;;;;;5.13;2.80;;;;;;;34.87;17.24;97650.97;5052589;28;20024;-72
2021/05/11 15:25:03;;;;;;;6.88;2.65;;;;;;;34.68;17.81;97650.25;5052470;28;20021;-71
2021/05/11 15:27:28;;;;;;;4.63;2.85;;;;;;;34.49;17.74;97641.00;5052793;28;20052;-71
2021/05/11 15:29:54;;;;;;;4.38;2.95;;;;;;;34.27;18.12;97639.94;5052729;28;20027;-72
2021/05/11 15:32:40;;;;;;;3.13;2.50;;;;;;;34.05;18.05;97634.44;5052593;28;20064;-71
2021/05/11 15:35:11;;;;;;;4.78;2.67;;;;;;;33.82;18.05;97628.13;5052643;28;20027;-72
2021/05/11 15:37:37;;;;;;;5.72;2.90;;;;;;;33.61;18.55;97624.19;5052902;28;20025;-73
2021/05/11 15:40:08;;;;;;;4.85;2.72;;;;;;;33.42;18.09;97631.94;5052255;28;20043;-72
2021/05/11 15:42:34;;;;;;;5.10;2.42;;;;;;;33.24;18.70;97627.78;5052435;28;20032;-71
2021/05/11 15:44:59;;;;;;;9.20;3.13;;;;;;;33.11;18.68;97627.91;5052438;28;20429;-71
2021/05/11 15:47:25;;;;;;;4.80;3.90;;;;;;;32.93;18.92;97631.50;5052266;28;20078;-72
2021/05/11 15:49:50;;;;;;;6.35;3.58;;;;;;;32.85;19.20;97626.59;5052302;28;20086;-72
2021/05/11 15:52:16;;;;;;;8.30;3.60;;;;;;;32.77;19.11;97621.19;5052251;28;20035;-71
2021/05/11 15:54:43;;;;;;;6.88;4.57;;;;;;;32.70;19.63;97623.53;5052292;28;20521;-72
2021/05/11 15:57:08;;;;;;;4.40;2.67;;;;;;;32.56;18.82;97620.00;5052202;28;20025;-72
2021/05/11 15:59:34;;;;;;;5.00;2.83;;;;;;;32.45;19.16;97620.44;5050789;28;20124;-72
2021/05/11 16:01:59;;;;;;;5.50;2.85;;;;;;;32.33;19.19;97616.44;5051925;28;20063;-71
2021/05/11 16:04:25;;;;;;;6.55;2.60;;;;;;;32.24;19.25;97613.50;5052139;28;20025;-71
2021/05/11 16:06:51;;;;;;;6.35;2.80;;;;;;;32.12;19.32;97611.53;5052035;28;20502;-72
2021/05/11 16:09:16;;;;;;;4.57;2.92;;;;;;;32.02;19.62;97599.38;5052021;28;20086;-71